Time,TemperatureF,DewpointF,PressureIn,WindDirection,WindDirectionDegrees,WindSpeedMPH,WindSpeedGustMPH,Humidity,HourlyPrecipIn,Conditions,Clouds,dailyrainin,SoftwareType,DateUTC
2016-07-30 00:12:00,76.9,73.0,29.92,North,-9999,0.0,0.0,86,0.00,,,0.00,weatherlink.com 1.10,2016-07-30 04:12:00,
2016-07-30 00:27:00,76.7,72.0,29.92,North,-9999,0.0,0.0,86,0.00,,,0.00,weatherlink.com 1.10,2016-07-30 04:27:00,
2016-07-30 00:42:00,76.5,72.0,29.93,North,-9999,0.0,0.0,87,0.00,,,0.00,weatherlink.com 1.10,2016-07-30 04:42:00,
2016-07-30 00:57:00,76.4,73.0,29.93,North,-9999,0.0,0.0,88,0.00,,,0.00,weatherlink.com 1.10,2016-07-30 04:57:00,
2016-07-30 01:12:00,76.3,73.0,29.93,North,-9999,0.0,0.0,88,0.00,,,0.00,weatherlink.com 1.10,2016-07-30 05:12:00,
2016-07-30 01:27:00,76.3,73.0,29.92,North,-9999,0.0,0.0,88,0.00,,,0.00,weatherlink.com 1.10,2016-07-30 05:27:00,
2016-07-30 01:42:00,76.2,73.0,29.92,North,-9999,0.0,0.0,88,0.00,,,0.00,weatherlink.com 1.10,2016-07-30 05:42:00,
2016-07-30 01:57:00,76.0,73.0,29.92,North,-9999,0.0,0.0,89,0.00,,,0.00,weatherlink.com 1.10,2016-07-30 05:57:00,
2016-07-30 02:12:00,75.8,72.0,29.91,North,-9999,0.0,0.0,89,0.00,,,0.00,weatherlink.com 1.10,2016-07-30 06:12:00,
2016-07-30 02:27:00,75.6,73.0,29.91,North,-9999,0.0,0.0,90,0.00,,,0.00,weatherlink.com 1.10,2016-07-30 06:27:00,
2016-07-30 02:42:00,75.5,73.0,29.91,North,-9999,0.0,0.0,90,0.00,,,0.00,weatherlink.com 1.10,2016-07-30 06:42:00,
2016-07-30 02:57:00,75.4,72.0,29.91,North,-9999,0.0,0.0,90,0.00,,,0.00,weatherlink.com 1.10,2016-07-30 06:57:00,
2016-07-30 03:12:00,75.4,73.0,29.90,North,-9999,0.0,0.0,91,0.00,,,0.00,weatherlink.com 1.10,2016-07-30 07:12:00,
2016-07-30 03:27:00,75.3,73.0,29.90,North,-9999,0.0,0.0,91,0.00,,,0.00,weatherlink.com 1.10,2016-07-30 07:27:00,
2016-07-30 03:42:00,75.3,73.0,29.89,North,-9999,0.0,0.0,91,0.00,,,0.00,weatherlink.com 1.10,2016-07-30 07:42:00,
2016-07-30 03:57:00,75.2,73.0,29.89,North,-9999,0.0,0.0,91,0.00,,,0.00,weatherlink.com 1.10,2016-07-30 07:57:00,
2016-07-30 04:12:00,75.1,73.0,29.89,North,-9999,0.0,0.0,92,0.00,,,0.00,weatherlink.com 1.10,2016-07-30 08:12:00,
2016-07-30 04:27:00,75.0,73.0,29.89,North,-9999,0.0,0.0,92,0.00,,,0.00,weatherlink.com 1.10,2016-07-30 08:27:00,
2016-07-30 04:42:00,74.9,73.0,29.89,North,-9999,0.0,0.0,92,0.00,,,0.00,weatherlink.com 1.10,2016-07-30 08:42:00,
2016-07-30 04:57:00,74.9,73.0,29.89,North,-9999,0.0,0.0,92,0.00,,,0.00,weatherlink.com 1.10,2016-07-30 08:57:00,
2016-07-30 05:12:00,74.8,72.0,29.90,North,-9999,0.0,0.0,92,0.00,,,0.00,weatherlink.com 1.10,2016-07-30 09:12:00,
2016-07-30 05:27:00,74.7,72.0,29.90,North,-9999,0.0,0.0,92,0.00,,,0.00,weatherlink.com 1.10,2016-07-30 09:27:00,
2016-07-30 05:42:00,74.5,72.0,29.90,North,-9999,0.0,0.0,93,0.00,,,0.00,weatherlink.com 1.10,2016-07-30 09:42:00,
2016-07-30 05:57:00,74.4,72.0,29.90,North,-9999,0.0,0.0,93,0.00,,,0.00,weatherlink.com 1.10,2016-07-30 09:57:00,
2016-07-30 06:12:00,74.4,72.0,29.91,North,-9999,0.0,0.0,93,0.00,,,0.00,weatherlink.com 1.10,2016-07-30 10:12:00,
2016-07-30 06:27:00,74.3,72.0,29.91,North,-9999,0.0,0.0,93,0.00,,,0.00,weatherlink.com 1.10,2016-07-30 10:27:00,
2016-07-30 06:42:00,74.3,73.0,29.92,North,-9999,0.0,0.0,94,0.00,,,0.00,weatherlink.com 1.10,2016-07-30 10:42:00,
2016-07-30 06:57:00,74.4,73.0,29.93,North,-9999,0.0,0.0,94,0.00,,,0.00,weatherlink.com 1.10,2016-07-30 10:57:00,
2016-07-30 07:12:00,74.6,73.0,29.93,North,-9999,0.0,0.0,94,0.00,,,0.00,weatherlink.com 1.10,2016-07-30 11:12:00,
2016-07-30 07:27:00,74.9,73.0,29.93,North,-9999,0.0,0.0,93,0.00,,,0.00,weatherlink.com 1.10,2016-07-30 11:27:00,
2016-07-30 07:42:00,75.3,73.0,29.94,North,-9999,0.0,0.0,93,0.00,,,0.00,weatherlink.com 1.10,2016-07-30 11:42:00,
2016-07-30 07:57:00,75.6,74.0,29.94,North,-9999,0.0,0.0,93,0.00,,,0.00,weatherlink.com 1.10,2016-07-30 11:57:00,
2016-07-30 08:12:00,75.8,74.0,29.94,North,-9999,0.0,0.0,93,0.00,,,0.00,weatherlink.com 1.10,2016-07-30 12:12:00,
2016-07-30 08:27:00,76.0,74.0,29.95,North,-9999,0.0,0.0,93,0.00,,,0.00,weatherlink.com 1.10,2016-07-30 12:27:00,
2016-07-30 08:42:00,76.4,74.0,29.95,North,-9999,0.0,0.0,93,0.00,,,0.00,weatherlink.com 1.10,2016-07-30 12:42:00,
2016-07-30 08:57:00,76.8,74.0,29.95,North,-9999,0.0,0.0,92,0.00,,,0.00,weatherlink.com 1.10,2016-07-30 12:57:00,
2016-07-30 09:12:00,77.3,75.0,29.95,North,-9999,0.0,0.0,91,0.00,,,0.00,weatherlink.com 1.10,2016-07-30 13:12:00,
2016-07-30 09:27:00,77.9,76.0,29.95,North,-9999,0.0,0.0,92,0.00,,,0.00,weatherlink.com 1.10,2016-07-30 13:27:00,
2016-07-30 09:42:00,78.6,76.0,29.95,North,-9999,0.0,0.0,90,0.00,,,0.00,weatherlink.com 1.10,2016-07-30 13:42:00,
2016-07-30 09:57:00,79.5,76.0,29.95,North,-9999,0.0,0.0,88,0.00,,,0.00,weatherlink.com 1.10,2016-07-30 13:57:00,
2016-07-30 10:12:00,80.3,76.0,29.95,North,-9999,0.0,0.0,86,0.00,,,0.00,weatherlink.com 1.10,2016-07-30 14:12:00,
2016-07-30 10:27:00,81.0,77.0,29.96,North,-9999,0.0,0.0,87,0.00,,,0.00,weatherlink.com 1.10,2016-07-30 14:27:00,
2016-07-30 10:42:00,81.3,76.0,29.96,North,-9999,0.0,0.0,83,0.00,,,0.00,weatherlink.com 1.10,2016-07-30 14:42:00,
2016-07-30 10:57:00,81.7,77.0,29.96,North,-9999,0.0,0.0,84,0.00,,,0.00,weatherlink.com 1.10,2016-07-30 14:57:00,
2016-07-30 11:12:00,82.2,76.0,29.95,North,-9999,0.0,0.0,82,0.00,,,0.00,weatherlink.com 1.10,2016-07-30 15:12:00,
2016-07-30 11:27:00,82.7,77.0,29.95,North,-9999,0.0,0.0,83,0.00,,,0.00,weatherlink.com 1.10,2016-07-30 15:27:00,
2016-07-30 11:43:00,83.0,77.0,29.95,North,-9999,0.0,0.0,81,0.00,,,0.00,weatherlink.com 1.10,2016-07-30 15:43:00,
2016-07-30 11:58:00,83.3,77.0,29.95,North,-9999,0.0,0.0,82,0.00,,,0.00,weatherlink.com 1.10,2016-07-30 15:58:00,
2016-07-30 12:13:00,83.8,77.0,29.95,North,-9999,0.0,0.0,79,0.00,,,0.00,weatherlink.com 1.10,2016-07-30 16:13:00,
2016-07-30 12:28:00,85.6,76.0,29.95,North,-9999,0.0,0.0,72,0.00,,,0.00,weatherlink.com 1.10,2016-07-30 16:28:00,
2016-07-30 12:43:00,86.5,76.0,29.94,North,-9999,0.0,0.0,70,0.00,,,0.00,weatherlink.com 1.10,2016-07-30 16:43:00,
2016-07-30 12:58:00,87.1,74.0,29.94,North,-9999,0.0,0.0,66,0.00,,,0.00,weatherlink.com 1.10,2016-07-30 16:58:00,
2016-07-30 13:13:00,87.7,75.0,29.93,North,-9999,0.0,0.0,65,0.00,,,0.00,weatherlink.com 1.10,2016-07-30 17:13:00,
2016-07-30 13:28:00,88.5,76.0,29.93,North,-9999,0.0,0.0,67,0.00,,,0.00,weatherlink.com 1.10,2016-07-30 17:28:00,
2016-07-30 13:43:00,88.9,76.0,29.92,North,-9999,0.0,0.0,66,0.00,,,0.00,weatherlink.com 1.10,2016-07-30 17:43:00,
2016-07-30 13:58:00,88.8,76.0,29.92,North,-9999,0.0,0.0,66,0.00,,,0.00,weatherlink.com 1.10,2016-07-30 17:58:00,
2016-07-30 14:13:00,89.2,76.0,29.91,North,-9999,0.0,0.0,65,0.00,,,0.00,weatherlink.com 1.10,2016-07-30 18:13:00,
2016-07-30 14:28:00,89.1,75.0,29.90,North,-9999,0.0,0.0,64,0.00,,,0.00,weatherlink.com 1.10,2016-07-30 18:28:00,
2016-07-30 14:43:00,89.6,75.0,29.89,North,-9999,0.0,0.0,63,0.00,,,0.00,weatherlink.com 1.10,2016-07-30 18:43:00,
2016-07-30 14:58:00,89.5,75.0,29.89,North,-9999,0.0,0.0,63,0.00,,,0.00,weatherlink.com 1.10,2016-07-30 18:58:00,
2016-07-30 15:13:00,89.2,76.0,29.89,North,-9999,0.0,0.0,65,0.00,,,0.00,weatherlink.com 1.10,2016-07-30 19:13:00,
2016-07-30 15:28:00,89.9,76.0,29.88,North,-9999,0.0,0.0,63,0.00,,,0.00,weatherlink.com 1.10,2016-07-30 19:28:00,
2016-07-30 15:43:00,90.4,75.0,29.89,North,-9999,0.0,0.0,60,0.00,,,0.00,weatherlink.com 1.10,2016-07-30 19:43:00,
2016-07-30 15:58:00,90.5,76.0,29.88,North,-9999,0.0,0.0,63,0.00,,,0.00,weatherlink.com 1.10,2016-07-30 19:58:00,
2016-07-30 16:13:00,90.4,75.0,29.88,North,-9999,0.0,0.0,61,0.00,,,0.00,weatherlink.com 1.10,2016-07-30 20:13:00,
2016-07-30 16:28:00,89.3,76.0,29.89,North,-9999,0.0,0.0,64,0.00,,,0.00,weatherlink.com 1.10,2016-07-30 20:28:00,
2016-07-30 16:43:00,88.1,76.0,29.89,North,-9999,0.0,0.0,68,0.00,,,0.00,weatherlink.com 1.10,2016-07-30 20:43:00,
2016-07-30 16:58:00,87.7,75.0,29.90,North,-9999,0.0,0.0,67,0.00,,,0.00,weatherlink.com 1.10,2016-07-30 20:58:00,
2016-07-30 17:13:00,87.9,76.0,29.89,North,-9999,0.0,0.0,68,0.00,,,0.00,weatherlink.com 1.10,2016-07-30 21:13:00,
2016-07-30 17:28:00,87.8,76.0,29.89,North,-9999,0.0,0.0,68,0.00,,,0.00,weatherlink.com 1.10,2016-07-30 21:28:00,
2016-07-30 17:43:00,87.6,77.0,29.89,North,-9999,0.0,0.0,71,0.00,,,0.00,weatherlink.com 1.10,2016-07-30 21:43:00,
2016-07-30 17:58:00,87.5,77.0,29.89,North,-9999,0.0,0.0,70,0.00,,,0.00,weatherlink.com 1.10,2016-07-30 21:58:00,
2016-07-30 18:13:00,87.5,76.0,29.89,North,-9999,0.0,0.0,69,0.00,,,0.00,weatherlink.com 1.10,2016-07-30 22:13:00,
2016-07-30 18:28:00,87.2,76.0,29.90,North,-9999,0.0,0.0,70,0.00,,,0.00,weatherlink.com 1.10,2016-07-30 22:28:00,
2016-07-30 18:43:00,86.9,76.0,29.89,North,-9999,0.0,0.0,71,0.00,,,0.00,weatherlink.com 1.10,2016-07-30 22:43:00,
2016-07-30 18:58:00,86.3,76.0,29.89,North,-9999,0.0,0.0,71,0.00,,,0.00,weatherlink.com 1.10,2016-07-30 22:58:00,
2016-07-30 19:13:00,85.6,76.0,29.89,North,-9999,0.0,0.0,73,0.00,,,0.00,weatherlink.com 1.10,2016-07-30 23:13:00,
2016-07-30 19:28:00,85.2,77.0,29.90,North,-9999,0.0,0.0,75,0.00,,,0.00,weatherlink.com 1.10,2016-07-30 23:28:00,
2016-07-30 19:43:00,84.6,77.0,29.91,North,-9999,0.0,0.0,79,0.00,,,0.00,weatherlink.com 1.10,2016-07-30 23:43:00,
2016-07-30 19:58:00,84.7,74.0,29.92,North,-9999,0.0,0.0,70,0.00,,,0.00,weatherlink.com 1.10,2016-07-30 23:58:00,
2016-07-30 20:13:00,84.5,71.0,29.92,North,-9999,0.0,0.0,65,0.00,,,0.00,weatherlink.com 1.10,2016-07-31 00:13:00,
2016-07-30 20:28:00,83.9,71.0,29.92,North,-9999,0.0,0.0,66,0.00,,,0.00,weatherlink.com 1.10,2016-07-31 00:28:00,
2016-07-30 20:43:00,83.2,72.0,29.92,North,-9999,0.0,0.0,69,0.00,,,0.00,weatherlink.com 1.10,2016-07-31 00:43:00,
2016-07-30 20:58:00,82.2,72.0,29.92,North,-9999,0.0,0.0,72,0.00,,,0.00,weatherlink.com 1.10,2016-07-31 00:58:00,
2016-07-30 21:13:00,81.7,73.0,29.92,North,-9999,0.0,0.0,75,0.00,,,0.00,weatherlink.com 1.10,2016-07-31 01:13:00,
2016-07-30 21:28:00,81.2,73.0,29.93,North,-9999,0.0,0.0,75,0.00,,,0.00,weatherlink.com 1.10,2016-07-31 01:28:00,
2016-07-30 21:43:00,80.8,73.0,29.95,North,-9999,0.0,0.0,76,0.00,,,0.00,weatherlink.com 1.10,2016-07-31 01:43:00,
2016-07-30 21:58:00,80.3,73.0,29.95,North,-9999,0.0,0.0,79,0.00,,,0.00,weatherlink.com 1.10,2016-07-31 01:58:00,
2016-07-30 22:13:00,79.8,73.0,29.95,North,-9999,0.0,0.0,79,0.00,,,0.00,weatherlink.com 1.10,2016-07-31 02:13:00,
2016-07-30 22:28:00,79.4,73.0,29.96,North,-9999,0.0,0.0,81,0.00,,,0.00,weatherlink.com 1.10,2016-07-31 02:28:00,
2016-07-30 22:43:00,79.2,73.0,29.96,North,-9999,0.0,0.0,81,0.00,,,0.00,weatherlink.com 1.10,2016-07-31 02:43:00,
2016-07-30 22:58:00,78.8,73.0,29.97,North,-9999,0.0,0.0,82,0.00,,,0.00,weatherlink.com 1.10,2016-07-31 02:58:00,